createdAt,value
2018-08-17T00:00:07.127Z,94964.23
2018-08-17T00:02:35.557Z,94960.34
2018-08-17T00:05:04.020Z,94957.48
2018-08-17T00:07:32.385Z,94951.75
2018-08-17T00:10:00.718Z,94956.16
2018-08-17T00:12:29.253Z,94951.81
2018-08-17T00:14:57.659Z,94951.83
2018-08-17T00:17:26.323Z,94947.48
2018-08-17T00:19:54.784Z,94947.47
2018-08-17T00:22:26.204Z,94940.89
2018-08-17T00:24:54.587Z,94944.11
2018-08-17T00:27:22.922Z,94943.91
2018-08-17T00:29:51.312Z,94939.80
2018-08-17T00:32:19.995Z,94939.57
2018-08-17T00:34:48.455Z,94934.27
2018-08-17T00:37:16.831Z,94935.95
2018-08-17T00:39:46.091Z,94936.87
2018-08-17T00:42:14.359Z,94935.91
2018-08-17T00:44:42.750Z,94936.62
2018-08-17T00:47:11.178Z,94932.02
2018-08-17T00:49:39.591Z,94934.02
2018-08-17T00:52:07.922Z,94938.03
2018-08-17T00:54:36.192Z,94933.88
2018-08-17T00:57:04.582Z,94936.02
2018-08-17T00:59:32.939Z,94935.55
2018-08-17T01:02:01.251Z,94932.67
2018-08-17T01:04:29.570Z,94933.37
2018-08-17T01:06:57.843Z,94936.33
2018-08-17T01:09:26.301Z,94937.90
2018-08-17T01:11:54.617Z,94932.08
2018-08-17T01:14:23.058Z,94928.48
2018-08-17T01:16:51.439Z,94928.67
2018-08-17T01:19:19.850Z,94924.39
2018-08-17T01:21:48.315Z,94923.75
2018-08-17T01:24:16.741Z,94927.55
2018-08-17T01:26:45.181Z,94923.43
2018-08-17T01:29:13.594Z,94922.95
2018-08-17T01:31:42.060Z,94925.95
2018-08-17T01:34:10.477Z,94926.48
2018-08-17T01:36:38.925Z,94922.20
2018-08-17T01:39:08.362Z,94924.73
2018-08-17T01:41:36.856Z,94923.80
2018-08-17T01:44:05.243Z,94925.34
2018-08-17T01:46:33.749Z,94929.69
2018-08-17T01:49:02.259Z,94934.82
2018-08-17T01:51:30.728Z,94926.23
2018-08-17T01:53:59.178Z,94927.78
2018-08-17T01:56:27.578Z,94929.62
2018-08-17T01:58:55.998Z,94930.42
2018-08-17T02:01:24.500Z,94934.08
2018-08-17T02:03:53.313Z,94932.14
2018-08-17T02:06:21.767Z,94934.33
2018-08-17T02:08:50.191Z,94938.95
2018-08-17T02:11:18.643Z,94930.06
2018-08-17T02:13:47.039Z,94929.25
2018-08-17T02:16:15.655Z,94932.78
2018-08-17T02:18:44.082Z,94936.06
2018-08-17T02:21:12.596Z,94933.94
2018-08-17T02:23:41.050Z,94933.94
2018-08-17T02:26:09.418Z,94935.16
2018-08-17T02:28:37.790Z,94934.98
2018-08-17T02:31:06.227Z,94934.47
2018-08-17T02:33:34.580Z,94936.62
2018-08-17T02:36:02.908Z,94931.22
2018-08-17T02:38:31.185Z,94931.70
2018-08-17T02:40:59.436Z,94936.55
2018-08-17T02:43:27.687Z,94932.44
2018-08-17T02:45:56.086Z,94936.55
2018-08-17T02:48:24.480Z,94928.81
2018-08-17T02:50:53.151Z,94935.02
2018-08-17T02:53:21.769Z,94934.69
2018-08-17T02:55:50.102Z,94938.02
2018-08-17T02:58:18.459Z,94929.27
2018-08-17T03:00:46.830Z,94939.10
2018-08-17T03:03:15.205Z,94943.72
2018-08-17T03:05:43.583Z,94945.07
2018-08-17T03:08:11.946Z,94938.88
2018-08-17T03:10:40.352Z,94943.98
2018-08-17T03:13:08.695Z,94946.62
2018-08-17T03:15:37.009Z,94942.64
2018-08-17T03:18:05.350Z,94949.50
2018-08-17T03:20:33.628Z,94944.33
2018-08-17T03:23:01.887Z,94946.50
2018-08-17T03:25:30.166Z,94949.66
2018-08-17T03:27:58.523Z,94950.59
2018-08-17T03:30:26.872Z,94949.46
2018-08-17T03:32:55.214Z,94951.81
2018-08-17T03:35:23.504Z,94953.05
2018-08-17T03:37:52.110Z,94946.16
2018-08-17T03:40:20.382Z,94949.84
2018-08-17T03:42:48.671Z,94951.08
2018-08-17T03:45:17.323Z,94954.31
2018-08-17T03:47:45.622Z,94957.09
2018-08-17T03:50:13.911Z,94955.36
2018-08-17T03:52:42.209Z,94956.59
2018-08-17T03:55:10.676Z,94953.51
2018-08-17T03:57:39.067Z,94961.21
2018-08-17T04:00:07.494Z,94958.44
2018-08-17T04:02:35.959Z,94961.72
2018-08-17T04:05:04.686Z,94959.22
2018-08-17T04:07:32.991Z,94957.78
2018-08-17T04:10:01.286Z,94960.59
2018-08-17T04:12:29.611Z,94957.09
2018-08-17T04:14:57.951Z,94955.54
2018-08-17T04:17:26.285Z,94960.40
2018-08-17T04:19:54.644Z,94959.17
2018-08-17T04:22:22.970Z,94963.56
2018-08-17T04:24:51.275Z,94966.27
2018-08-17T04:27:19.671Z,94974.45
2018-08-17T04:29:48.072Z,94973.05
2018-08-17T04:32:16.502Z,94972.70
2018-08-17T04:34:44.889Z,94978.23
2018-08-17T04:37:13.278Z,94976.74
2018-08-17T04:39:41.775Z,94977.94
2018-08-17T04:42:11.167Z,94977.13
2018-08-17T04:44:39.645Z,94975.92
2018-08-17T04:47:08.198Z,94981.95
2018-08-17T04:49:36.913Z,94979.69
2018-08-17T04:52:06.604Z,94986.66
2018-08-17T04:54:34.947Z,94989.94
2018-08-17T04:57:04.399Z,94999.14
2018-08-17T04:59:33.105Z,95002.58
2018-08-17T05:02:01.331Z,95001.07
2018-08-17T05:04:29.610Z,95011.89
2018-08-17T05:06:57.947Z,95010.11
2018-08-17T05:09:26.230Z,95008.37
2018-08-17T05:11:54.581Z,95017.03
2018-08-17T05:14:22.943Z,95012.88
2018-08-17T05:16:51.516Z,95017.98
2018-08-17T05:19:19.906Z,95018.94
2018-08-17T05:21:48.310Z,95023.22
2018-08-17T05:24:17.069Z,95019.72
2018-08-17T05:26:45.848Z,95026.83
2018-08-17T05:29:14.363Z,95026.69
2018-08-17T05:31:42.725Z,95022.30
2018-08-17T05:34:11.178Z,95025.10
2018-08-17T05:36:39.577Z,95026.19
2018-08-17T05:39:08.754Z,95028.14
2018-08-17T05:41:38.004Z,95033.61
2018-08-17T05:44:06.607Z,95029.84
2018-08-17T05:46:34.915Z,95036.47
2018-08-17T05:49:03.198Z,95039.19
2018-08-17T05:51:31.490Z,95049.78
2018-08-17T05:53:59.897Z,95050.34
2018-08-17T05:56:28.251Z,95057.55
2018-08-17T05:58:56.610Z,95054.30
2018-08-17T06:01:24.885Z,95052.87
2018-08-17T06:03:53.340Z,95055.45
2018-08-17T06:06:21.637Z,95053.86
2018-08-17T06:08:50.005Z,95056.69
2018-08-17T06:11:18.541Z,95061.70
2018-08-17T06:13:46.750Z,95060.80
2018-08-17T06:16:15.157Z,95063.45
2018-08-17T06:18:43.449Z,95071.16
2018-08-17T06:21:11.815Z,95071.00
2018-08-17T06:23:40.166Z,95062.36
2018-08-17T06:26:08.541Z,95065.47
2018-08-17T06:28:36.939Z,95065.69
2018-08-17T06:31:05.333Z,95063.13
2018-08-17T06:33:33.766Z,95072.94
2018-08-17T06:36:02.300Z,95076.50
2018-08-17T06:38:30.711Z,95076.20
2018-08-17T06:40:59.106Z,95078.39
2018-08-17T06:43:27.543Z,95075.38
2018-08-17T06:45:55.931Z,95075.23
2018-08-17T06:48:24.323Z,95076.38
2018-08-17T06:50:52.830Z,95078.02
2018-08-17T06:53:21.198Z,95083.52
2018-08-17T06:55:49.603Z,95089.08
2018-08-17T06:58:18.070Z,95092.88
2018-08-17T07:00:46.466Z,95101.32
2018-08-17T07:03:14.840Z,95114.73
2018-08-17T07:05:43.178Z,95117.57
2018-08-17T07:08:11.610Z,95120.72
2018-08-17T07:10:40.041Z,95122.95
2018-08-17T07:13:08.403Z,95125.99
2018-08-17T07:15:36.828Z,95135.59
2018-08-17T07:18:05.250Z,95139.27
2018-08-17T07:20:33.682Z,95141.50
2018-08-17T07:23:02.098Z,95146.34
2018-08-17T07:25:30.523Z,95152.25
2018-08-17T07:27:59.025Z,95158.02
2018-08-17T07:30:27.419Z,95150.64
2018-08-17T07:32:55.896Z,95157.66
2018-08-17T07:35:24.451Z,95162.36
2018-08-17T07:37:52.871Z,95167.23
2018-08-17T07:40:21.280Z,95164.65
2018-08-17T07:42:49.721Z,95170.38
2018-08-17T07:45:18.118Z,95169.95
2018-08-17T07:47:46.616Z,95175.67
2018-08-17T07:50:22.093Z,95178.77
2018-08-17T07:52:50.599Z,95176.86
2018-08-17T07:55:19.108Z,95175.21
2018-08-17T07:57:47.544Z,95179.69
2018-08-17T08:00:15.979Z,95177.98
2018-08-17T08:02:44.441Z,95185.29
2018-08-17T08:05:12.866Z,95185.03
2018-08-17T08:07:41.360Z,95191.47
2018-08-17T08:10:10.698Z,95193.45
2018-08-17T08:12:39.310Z,95196.04
2018-08-17T08:15:07.924Z,95213.81
2018-08-17T08:17:36.570Z,95220.16
2018-08-17T08:20:16.155Z,95226.00
2018-08-17T08:22:44.542Z,95237.50
2018-08-17T08:25:12.955Z,95240.19
2018-08-17T08:27:41.279Z,95247.64
2018-08-17T08:30:09.646Z,95242.67
2018-08-17T08:32:38.026Z,95252.23
2018-08-17T08:35:07.799Z,95251.48
2018-08-17T08:37:36.046Z,95241.68
2018-08-17T08:40:04.626Z,95244.66
2018-08-17T08:42:32.988Z,95241.05
2018-08-17T08:45:02.346Z,95243.25
2018-08-17T08:47:30.653Z,95254.15
2018-08-17T08:49:58.882Z,95243.67
2018-08-17T08:52:27.468Z,95255.31
2018-08-17T08:54:55.784Z,95246.47
2018-08-17T08:57:24.027Z,95259.77
2018-08-17T08:59:52.315Z,95275.79
2018-08-17T09:02:20.690Z,95278.69
2018-08-17T09:04:48.991Z,95271.38
2018-08-17T09:07:17.275Z,95267.20
2018-08-17T09:09:45.610Z,95264.03
2018-08-17T09:12:13.933Z,95255.93
2018-08-17T09:14:48.971Z,95253.37
2018-08-17T09:17:17.249Z,95235.66
2018-08-17T09:19:45.559Z,95234.55
2018-08-17T09:22:14.846Z,95224.63
2018-08-17T09:24:43.167Z,95213.98
2018-08-17T09:27:11.442Z,95207.59
2018-08-17T09:29:39.699Z,95223.00
2018-08-17T09:32:08.011Z,95226.23
2018-08-17T09:34:36.394Z,95238.83
2018-08-17T09:37:04.663Z,95238.81
2018-08-17T09:39:32.938Z,95209.11
2018-08-17T09:42:01.246Z,95201.52
2018-08-17T09:44:29.574Z,95207.71
2018-08-17T09:46:57.831Z,95201.95
2018-08-17T09:49:26.078Z,95200.36
2018-08-17T09:51:54.329Z,95194.98
2018-08-17T09:54:22.603Z,95194.06
2018-08-17T09:56:50.841Z,95185.27
2018-08-17T09:59:19.094Z,95194.56
2018-08-17T10:01:52.575Z,95187.48
2018-08-17T10:04:26.028Z,95179.55
2018-08-17T10:06:59.487Z,95168.59
2018-08-17T10:09:32.981Z,95170.13
2018-08-17T10:12:01.492Z,95172.09
2018-08-17T10:14:29.951Z,95170.47
2018-08-17T10:16:58.355Z,95166.94
2018-08-17T10:19:26.745Z,95161.53
2018-08-17T10:21:55.979Z,95167.36
2018-08-17T10:24:24.661Z,95153.53
2018-08-17T10:26:54.003Z,95154.13
2018-08-17T10:29:22.963Z,95158.27
2018-08-17T10:31:51.496Z,95154.39
2018-08-17T10:34:20.269Z,95145.11
2018-08-17T10:36:48.716Z,95124.12
2018-08-17T10:39:17.122Z,95126.95
2018-08-17T10:41:45.573Z,95121.72
2018-08-17T10:44:14.026Z,95121.76
2018-08-17T10:46:42.853Z,95127.78
2018-08-17T10:49:11.636Z,95140.16
2018-08-17T10:51:39.967Z,95134.60
2018-08-17T10:54:08.405Z,95146.19
2018-08-17T10:56:36.867Z,95161.30
2018-08-17T10:59:05.327Z,95158.82
2018-08-17T11:01:33.750Z,95162.34
2018-08-17T11:04:02.130Z,95153.36
2018-08-17T11:06:30.527Z,95151.33
2018-08-17T11:08:58.964Z,95155.75
2018-08-17T11:11:27.372Z,95153.67
2018-08-17T11:13:55.828Z,95148.50
2018-08-17T11:16:24.213Z,95157.61
2018-08-17T11:18:52.675Z,95160.84
2018-08-17T11:21:21.079Z,95162.48
2018-08-17T11:23:49.559Z,95167.55
2018-08-17T11:26:18.016Z,95179.14
2018-08-17T11:28:46.445Z,95173.61
2018-08-17T11:31:21.617Z,95184.58
2018-08-17T11:33:50.086Z,95187.67
2018-08-17T11:36:22.697Z,95176.12
2018-08-17T11:38:51.123Z,95182.63
2018-08-17T11:41:19.544Z,95175.73
2018-08-17T11:43:48.218Z,95179.02
2018-08-17T11:46:16.665Z,95188.83
2018-08-17T11:48:45.451Z,95179.13
2018-08-17T11:51:13.721Z,95179.30
2018-08-17T11:53:46.968Z,95177.52
2018-08-17T11:56:15.270Z,95176.95
2018-08-17T11:58:43.579Z,95180.61
2018-08-17T12:01:18.597Z,95178.50
2018-08-17T12:03:46.822Z,95182.86
2018-08-17T12:06:15.131Z,95177.16
2018-08-17T12:08:43.716Z,95179.84
2018-08-17T12:11:12.113Z,95176.95
2018-08-17T12:13:40.513Z,95176.85
2018-08-17T12:16:11.366Z,95183.28
2018-08-17T12:18:39.751Z,95181.03
2018-08-17T12:21:08.210Z,95179.66
2018-08-17T12:23:36.699Z,95178.50
2018-08-17T12:26:05.084Z,95181.33
2018-08-17T12:28:33.450Z,95187.89
2018-08-17T12:31:01.878Z,95181.63
2018-08-17T12:33:30.354Z,95182.51
2018-08-17T12:35:58.809Z,95175.64
2018-08-17T12:38:27.196Z,95178.04
2018-08-17T12:40:56.642Z,95170.20
2018-08-17T12:43:38.785Z,95182.13
2018-08-17T12:46:07.232Z,95186.98
2018-08-17T12:48:35.475Z,95180.80
2018-08-17T12:51:05.028Z,95181.36
2018-08-17T12:53:33.299Z,95183.05
2018-08-17T12:56:01.649Z,95178.77
2018-08-17T12:58:29.961Z,95182.58
2018-08-17T13:00:58.331Z,95181.66
2018-08-17T13:03:26.654Z,95174.73
2018-08-17T13:05:55.030Z,95181.38
2018-08-17T13:08:23.626Z,95180.15
2018-08-17T13:10:52.257Z,95180.44
2018-08-17T13:13:20.746Z,95184.41
2018-08-17T13:15:54.298Z,95187.70
2018-08-17T13:18:23.590Z,95184.59
2018-08-17T13:20:51.926Z,95197.00
2018-08-17T13:23:20.812Z,95192.77
2018-08-17T13:25:49.619Z,95190.75
2018-08-17T13:28:17.967Z,95191.08
2018-08-17T13:30:46.332Z,95199.75
2018-08-17T13:33:15.274Z,95195.62
2018-08-17T13:35:43.665Z,95197.05
2018-08-17T13:38:12.499Z,95201.12
2018-08-17T13:40:42.066Z,95199.43
2018-08-17T13:43:10.434Z,95199.73
2018-08-17T13:45:39.183Z,95201.81
2018-08-17T13:48:07.701Z,95211.84
2018-08-17T13:50:36.016Z,95213.64
2018-08-17T13:53:04.408Z,95207.84
2018-08-17T13:55:32.963Z,95215.05
2018-08-17T13:58:01.907Z,95207.03
2018-08-17T14:00:30.270Z,95213.16
2018-08-17T14:02:59.373Z,95220.58
2018-08-17T14:05:27.710Z,95222.11
2018-08-17T14:07:56.378Z,95216.59
2018-08-17T14:10:24.711Z,95218.84
2018-08-17T14:12:53.215Z,95222.80
2018-08-17T14:15:21.894Z,95222.17
2018-08-17T14:17:50.536Z,95224.77
2018-08-17T14:20:19.122Z,95226.06
2018-08-17T14:22:47.683Z,95236.15
2018-08-17T14:25:16.199Z,95242.22
2018-08-17T14:27:44.977Z,95234.23
2018-08-17T14:30:16.302Z,95243.09
2018-08-17T14:32:45.107Z,95241.88
2018-08-17T14:35:14.100Z,95240.89
2018-08-17T14:37:42.601Z,95249.11
2018-08-17T14:40:11.477Z,95247.16
2018-08-17T14:42:40.280Z,95247.52
2018-08-17T14:45:09.547Z,95244.13
2018-08-17T14:47:38.299Z,95248.97
2018-08-17T14:50:10.486Z,95242.88
2018-08-17T14:52:39.062Z,95245.76
2018-08-17T14:55:08.943Z,95252.66
2018-08-17T14:57:37.426Z,95257.52
2018-08-17T15:00:09.523Z,95249.67
2018-08-17T15:02:41.248Z,95250.68
2018-08-17T15:05:11.122Z,95261.09
2018-08-17T15:07:39.877Z,95256.94
2018-08-17T15:10:09.323Z,95254.96
2018-08-17T15:12:37.896Z,95258.72
2018-08-17T15:15:06.529Z,95262.02
2018-08-17T15:17:35.045Z,95263.91
2018-08-17T15:20:03.654Z,95262.69
2018-08-17T15:22:32.171Z,95264.62
2018-08-17T15:25:00.649Z,95268.14
2018-08-17T15:27:29.197Z,95263.92
2018-08-17T15:29:57.930Z,95267.52
2018-08-17T15:32:26.327Z,95269.72
2018-08-17T15:34:54.913Z,95260.00
2018-08-17T15:37:23.306Z,95265.23
2018-08-17T15:39:51.694Z,95267.22
2018-08-17T15:42:20.079Z,95262.45
2018-08-17T15:44:48.744Z,95264.47
2018-08-17T15:47:17.204Z,95263.70
2018-08-17T15:50:04.138Z,95256.72
2018-08-17T15:52:32.518Z,95256.42
2018-08-17T15:55:01.267Z,95258.41
2018-08-17T15:57:29.748Z,95259.16
2018-08-17T15:59:58.283Z,95265.61
2018-08-17T16:02:26.900Z,95266.92
2018-08-17T16:04:55.353Z,95264.45
2018-08-17T16:07:24.036Z,95264.05
2018-08-17T16:09:53.083Z,95270.74
2018-08-17T16:12:21.555Z,95264.71
2018-08-17T16:14:50.041Z,95270.03
2018-08-17T16:17:19.830Z,95272.20
2018-08-17T16:19:48.834Z,95273.30
2018-08-17T16:22:17.392Z,95275.86
2018-08-17T16:24:46.084Z,95270.00
2018-08-17T16:27:14.599Z,95272.27
2018-08-17T16:29:43.111Z,95278.78
2018-08-17T16:32:11.855Z,95277.95
2018-08-17T16:34:40.277Z,95285.59
2018-08-17T16:37:08.850Z,95285.77
2018-08-17T16:39:43.622Z,95284.18
2018-08-17T16:42:19.695Z,95276.60
2018-08-17T16:44:48.645Z,95281.22
2018-08-17T16:47:16.927Z,95271.38
2018-08-17T16:49:45.238Z,95276.41
2018-08-17T16:52:14.190Z,95273.96
2018-08-17T16:54:42.653Z,95276.81
2018-08-17T16:57:12.236Z,95275.20
2018-08-17T16:59:40.684Z,95279.48
2018-08-17T17:02:09.154Z,95273.52
2018-08-17T17:04:40.653Z,95273.05
2018-08-17T17:07:09.101Z,95283.05
2018-08-17T17:09:37.700Z,95283.47
2018-08-17T17:12:12.392Z,95289.25
2018-08-17T17:14:40.811Z,95286.91
2018-08-17T17:17:09.161Z,95289.25
2018-08-17T17:19:37.430Z,95301.89
2018-08-17T17:22:06.151Z,95300.17
2018-08-17T17:24:34.443Z,95299.22
2018-08-17T17:27:03.244Z,95303.55
2018-08-17T17:29:34.917Z,95300.17
2018-08-17T17:32:03.499Z,95300.45
2018-08-17T17:34:32.103Z,95298.20
2018-08-17T17:37:00.502Z,95309.29
2018-08-17T17:39:28.918Z,95312.38
2018-08-17T17:41:57.311Z,95311.28
2018-08-17T17:44:25.728Z,95307.34
2018-08-17T17:46:54.279Z,95310.77
2018-08-17T17:49:22.593Z,95315.52
2018-08-17T17:51:50.872Z,95317.62
2018-08-17T17:54:21.511Z,95319.23
2018-08-17T17:56:54.454Z,95322.66
2018-08-17T17:59:22.734Z,95328.95
2018-08-17T18:01:51.022Z,95329.25
2018-08-17T18:04:19.322Z,95325.28
2018-08-17T18:06:47.603Z,95326.14
2018-08-17T18:09:15.858Z,95325.83
2018-08-17T18:11:44.139Z,95329.39
2018-08-17T18:14:12.467Z,95330.00
2018-08-17T18:16:40.868Z,95321.77
2018-08-17T18:19:09.118Z,95324.13
2018-08-17T18:21:37.485Z,95321.37
2018-08-17T18:24:11.112Z,95332.54
2018-08-17T18:26:44.485Z,95333.25
2018-08-17T18:29:12.726Z,95333.38
2018-08-17T18:31:40.965Z,95337.44
2018-08-17T18:34:09.219Z,95341.08
2018-08-17T18:36:37.475Z,95339.57
2018-08-17T18:39:08.778Z,95341.09
2018-08-17T18:41:37.039Z,95344.90
2018-08-17T18:44:05.294Z,95348.04
2018-08-17T18:46:34.840Z,95350.06
2018-08-17T18:49:03.270Z,95343.44
2018-08-17T18:51:31.538Z,95348.20
2018-08-17T18:53:59.804Z,95354.00
2018-08-17T18:56:28.129Z,95351.40
2018-08-17T18:58:56.520Z,95351.58
2018-08-17T19:01:24.795Z,95360.98
2018-08-17T19:03:53.064Z,95365.09
2018-08-17T19:06:21.297Z,95365.26
2018-08-17T19:08:49.592Z,95367.60
2018-08-17T19:11:17.844Z,95372.84
2018-08-17T19:13:46.091Z,95377.91
2018-08-17T19:16:14.421Z,95377.71
2018-08-17T19:18:42.722Z,95389.39
2018-08-17T19:21:12.470Z,95385.13
2018-08-17T19:23:40.805Z,95398.00
2018-08-17T19:26:15.871Z,95398.19
2018-08-17T19:28:44.129Z,95405.03
2018-08-17T19:31:12.503Z,95404.22
2018-08-17T19:33:40.818Z,95414.13
2018-08-17T19:36:09.139Z,95410.80
2018-08-17T19:38:39.458Z,95410.44
2018-08-17T19:41:07.854Z,95409.59
2018-08-17T19:43:36.423Z,95414.07
2018-08-17T19:46:05.028Z,95411.28
2018-08-17T19:48:33.560Z,95413.44
2018-08-17T19:51:02.178Z,95418.47
2018-08-17T19:53:30.558Z,95417.48
2018-08-17T19:55:58.955Z,95417.98
2018-08-17T19:58:27.370Z,95417.39
2018-08-17T20:00:55.872Z,95426.11
2018-08-17T20:03:24.290Z,95426.83
2018-08-17T20:05:52.806Z,95425.66
2018-08-17T20:08:21.314Z,95432.05
2018-08-17T20:10:50.918Z,95438.77
2018-08-17T20:13:19.377Z,95434.59
2018-08-17T20:15:47.739Z,95439.22
2018-08-17T20:18:16.138Z,95438.55
2018-08-17T20:20:44.474Z,95436.04
2018-08-17T20:23:12.872Z,95440.70
2018-08-17T20:25:41.316Z,95436.72
2018-08-17T20:28:09.697Z,95443.35
2018-08-17T20:30:39.038Z,95435.67
2018-08-17T20:33:13.071Z,95446.53
2018-08-17T20:35:41.822Z,95445.31
2018-08-17T20:38:10.255Z,95445.11
2018-08-17T20:40:38.661Z,95444.25
2018-08-17T20:43:07.201Z,95443.94
2018-08-17T20:45:35.528Z,95446.74
2018-08-17T20:48:03.986Z,95446.58
2018-08-17T20:50:32.412Z,95446.85
2018-08-17T20:53:00.870Z,95451.66
2018-08-17T20:55:29.294Z,95445.44
2018-08-17T20:57:58.550Z,95447.53
2018-08-17T21:00:28.381Z,95440.89
2018-08-17T21:02:56.955Z,95444.36
2018-08-17T21:05:25.336Z,95450.16
2018-08-17T21:07:53.776Z,95447.79
2018-08-17T21:10:22.103Z,95449.05
2018-08-17T21:12:50.759Z,95454.11
2018-08-17T21:15:19.333Z,95463.97
2018-08-17T21:17:48.396Z,95457.47
2018-08-17T21:20:16.788Z,95464.52
2018-08-17T21:22:45.250Z,95460.64
2018-08-17T21:25:13.511Z,95455.60
2018-08-17T21:27:41.969Z,95454.70
2018-08-17T21:30:10.883Z,95458.34
2018-08-17T21:32:39.267Z,95464.59
2018-08-17T21:35:07.896Z,95460.64
2018-08-17T21:37:36.554Z,95461.41
2018-08-17T21:40:06.589Z,95458.59
2018-08-17T21:42:35.039Z,95460.04
2018-08-17T21:45:04.773Z,95460.38
2018-08-17T21:47:33.237Z,95460.86
2018-08-17T21:50:08.534Z,95461.83
2018-08-17T21:52:37.039Z,95468.91
2018-08-17T21:55:05.420Z,95471.68
2018-08-17T21:57:33.931Z,95472.42
2018-08-17T22:00:02.426Z,95474.19
2018-08-17T22:02:30.855Z,95475.75
2018-08-17T22:05:00.313Z,95475.27
2018-08-17T22:07:31.523Z,95484.67
2018-08-17T22:10:00.441Z,95488.66
2018-08-17T22:12:29.015Z,95485.00
2018-08-17T22:14:57.453Z,95484.40
2018-08-17T22:17:36.967Z,95486.23
2018-08-17T22:20:07.754Z,95490.84
2018-08-17T22:22:36.109Z,95491.17
2018-08-17T22:25:09.324Z,95488.30
2018-08-17T22:27:37.857Z,95492.17
2018-08-17T22:30:10.430Z,95498.78
2018-08-17T22:32:38.818Z,95495.20
2018-08-17T22:35:07.261Z,95492.45
2018-08-17T22:37:35.608Z,95498.36
2018-08-17T22:40:04.246Z,95494.84
2018-08-17T22:42:32.786Z,95498.39
2018-08-17T22:45:01.690Z,95500.95
2018-08-17T22:47:30.295Z,95504.06
2018-08-17T22:49:59.987Z,95502.97
2018-08-17T22:52:31.564Z,95497.76
2018-08-17T22:55:01.058Z,95498.53
2018-08-17T22:57:30.135Z,95499.20
2018-08-17T23:00:11.904Z,95500.11
2018-08-17T23:02:41.253Z,95498.31
2018-08-17T23:05:12.914Z,95499.62
2018-08-17T23:07:41.335Z,95501.16
2018-08-17T23:10:12.856Z,95492.33
2018-08-17T23:12:41.376Z,95497.94
2018-08-17T23:15:10.782Z,95504.97
2018-08-17T23:17:39.625Z,95506.20
2018-08-17T23:20:08.304Z,95504.38
2018-08-17T23:22:45.910Z,95506.35
2018-08-17T23:25:14.577Z,95509.51
2018-08-17T23:27:43.073Z,95507.11
2018-08-17T23:30:11.418Z,95511.59
2018-08-17T23:32:39.819Z,95509.90
2018-08-17T23:35:08.362Z,95505.34
2018-08-17T23:37:37.079Z,95505.55
2018-08-17T23:40:06.041Z,95512.87
2018-08-17T23:42:34.693Z,95515.77
2018-08-17T23:45:03.391Z,95515.16
2018-08-17T23:47:32.110Z,95514.14
2018-08-17T23:50:00.497Z,95518.23
2018-08-17T23:52:28.850Z,95518.52
2018-08-17T23:54:57.297Z,95514.36
2018-08-17T23:57:25.717Z,95513.58
2018-08-17T23:59:54.145Z,95515.82
